Orbital elements of PSLV DEB
| Launched | 21 October 2001 |
| Flight ended | – |
| Launch site | Satish Dhawan Space Centre, India (Formerly Sriharikota Launching Range) |
| Owner | India |
| NORAD ID | 27141 |
| Date fetched |
Epoch osculation |
Inc. [°] |
Ecc. | RA asc node [hr] |
Arg Peri. [°] |
Mean anom [°] |
Mean motion [rev/day] |
Abs. mag |
| Date fetched |
Epoch osculation |
Inc. [°] |
Ecc. | RA asc node [hr] |
Arg Peri. [°] |
Mean anom [°] |
Mean motion [rev/day] |
Abs. mag |
| 2026 May 04 17:57 | 2026 Apr 30 15:04:27 | 98.0805 | 0.00467 | 11.5009 | 32.1503 | 127.8099 | 14.90591 | – |
| 2026 May 03 17:57 | 2026 Apr 30 15:04:27 | 98.0805 | 0.00467 | 11.5009 | 32.1503 | 127.8099 | 14.90591 | – |
| 2026 May 02 17:57 | 2026 Apr 30 15:04:27 | 98.0805 | 0.00467 | 11.5009 | 32.1503 | 127.8099 | 14.90591 | – |
| 2026 May 01 17:56 | 2026 Apr 30 15:04:27 | 98.0805 | 0.00467 | 11.5009 | 32.1503 | 127.8099 | 14.90591 | – |
| 2026 Apr 30 17:56 | 2026 Apr 30 15:04:27 | 98.0805 | 0.00467 | 11.5009 | 32.1503 | 127.8099 | 14.90591 | – |
| 2026 Apr 29 17:57 | 2026 Apr 24 02:13:09 | 98.0815 | 0.00471 | 11.0551 | 53.1961 | 127.8099 | 14.90591 | – |
| 2026 Apr 28 17:56 | 2026 Apr 24 02:13:09 | 98.0815 | 0.00471 | 11.0551 | 53.1961 | 127.8099 | 14.90591 | – |
| 2026 Apr 27 17:58 | 2026 Apr 24 02:13:09 | 98.0815 | 0.00471 | 11.0551 | 53.1961 | 127.8099 | 14.90591 | – |
| 2026 Apr 26 17:58 | 2026 Apr 24 02:13:09 | 98.0815 | 0.00471 | 11.0551 | 53.1961 | 127.8099 | 14.90591 | – |
| 2026 Apr 25 17:58 | 2026 Apr 24 02:13:09 | 98.0815 | 0.00471 | 11.0551 | 53.1961 | 127.8099 | 14.90591 | – |
| 2026 Apr 24 17:59 | 2026 Apr 24 02:13:09 | 98.0815 | 0.00471 | 11.0551 | 53.1961 | 127.8099 | 14.90591 | – |
| 2026 Apr 23 17:57 | 2026 Apr 19 09:35:49 | 98.0824 | 0.00473 | 10.7349 | 68.2379 | 127.8099 | 14.90591 | – |
| 2026 Apr 22 17:57 | 2026 Apr 19 09:35:49 | 98.0824 | 0.00473 | 10.7349 | 68.2379 | 127.8099 | 14.90591 | – |
| 2026 Apr 21 17:57 | 2026 Apr 19 09:35:49 | 98.0824 | 0.00473 | 10.7349 | 68.2379 | 127.8099 | 14.90591 | – |
| 2026 Apr 20 17:57 | 2026 Apr 19 09:35:49 | 98.0824 | 0.00473 | 10.7349 | 68.2379 | 127.8099 | 14.90591 | – |
| 2026 Apr 19 17:58 | 2026 Apr 19 09:35:49 | 98.0824 | 0.00473 | 10.7349 | 68.2379 | 127.8099 | 14.90591 | – |
| 2026 Apr 18 17:56 | 2026 Apr 13 01:59:40 | 98.0833 | 0.00475 | 10.3040 | 88.3509 | 127.8099 | 14.90591 | – |
| 2026 Apr 16 17:57 | 2026 Apr 13 01:59:40 | 98.0833 | 0.00475 | 10.3040 | 88.3509 | 127.8099 | 14.90591 | – |
| 2026 Apr 14 17:57 | 2026 Apr 13 01:59:40 | 98.0833 | 0.00475 | 10.3040 | 88.3509 | 127.8099 | 14.90591 | – |
| 2026 Apr 13 17:57 | 2026 Apr 13 01:59:40 | 98.0833 | 0.00475 | 10.3040 | 88.3509 | 127.8099 | 14.90591 | – |
| 2026 Apr 12 17:57 | 2026 Apr 08 14:35:36 | 98.0838 | 0.00475 | 9.9987 | 102.6058 | 127.8099 | 14.90591 | – |
| 2026 Apr 11 17:57 | 2026 Apr 08 14:35:36 | 98.0838 | 0.00475 | 9.9987 | 102.6058 | 127.8099 | 14.90591 | – |
| 2026 Apr 10 17:58 | 2026 Apr 08 14:35:36 | 98.0838 | 0.00475 | 9.9987 | 102.6058 | 127.8099 | 14.90591 | – |
| 2026 Apr 09 18:01 | 2026 Apr 08 14:35:36 | 98.0838 | 0.00475 | 9.9987 | 102.6058 | 127.8099 | 14.90591 | – |
| 2026 Apr 08 17:57 | 2026 Apr 08 14:35:36 | 98.0838 | 0.00475 | 9.9987 | 102.6058 | 127.8099 | 14.90591 | – |
| 2026 Apr 07 17:57 | 2026 Apr 02 03:20:24 | 98.0850 | 0.00474 | 9.5573 | 123.2880 | 127.8099 | 14.90591 | – |